createdAt,value
2022-09-02T00:00:46.264Z,19.46
2022-09-02T00:01:46.331Z,19.61
2022-09-02T00:02:46.251Z,19.61
2022-09-02T00:03:46.150Z,19.47
2022-09-02T00:04:46.112Z,19.46
2022-09-02T00:05:46.078Z,19.61
2022-09-02T00:06:46.052Z,19.68
2022-09-02T00:07:46.005Z,19.62
2022-09-02T00:08:45.966Z,19.60
2022-09-02T00:09:45.930Z,19.53
2022-09-02T00:10:45.891Z,19.53
2022-09-02T00:11:45.851Z,19.50
2022-09-02T00:12:45.832Z,19.47
2022-09-02T00:13:45.779Z,19.42
2022-09-02T00:14:45.743Z,19.49
2022-09-02T00:15:45.714Z,19.57
2022-09-02T00:16:45.707Z,19.47
2022-09-02T00:17:45.633Z,19.53
2022-09-02T00:18:45.968Z,19.58
2022-09-02T00:19:45.554Z,19.49
2022-09-02T00:20:45.519Z,19.61
2022-09-02T00:21:45.481Z,19.67
2022-09-02T00:22:45.444Z,19.78
2022-09-02T00:23:45.408Z,19.61
2022-09-02T00:24:45.378Z,19.64
2022-09-02T00:25:45.332Z,19.52
2022-09-02T00:26:45.295Z,19.55
2022-09-02T00:27:45.258Z,19.46
2022-09-02T00:28:49.229Z,19.55
2022-09-02T00:29:45.207Z,19.49
2022-09-02T00:30:45.147Z,19.65
2022-09-02T00:31:45.188Z,19.62
2022-09-02T00:32:45.072Z,19.60
2022-09-02T00:33:45.034Z,19.67
2022-09-02T00:34:44.998Z,19.50
2022-09-02T00:35:44.974Z,19.57
2022-09-02T00:36:44.923Z,19.45
2022-09-02T00:37:44.888Z,19.49
2022-09-02T00:38:44.852Z,19.45
2022-09-02T00:39:44.813Z,19.43
2022-09-02T00:40:44.863Z,19.35
2022-09-02T00:41:44.737Z,19.40
2022-09-02T00:42:44.700Z,19.40
2022-09-02T00:43:44.661Z,19.39
2022-09-02T00:44:44.627Z,19.42
2022-09-02T00:45:44.610Z,19.42
2022-09-02T00:46:44.565Z,19.38
2022-09-02T00:47:44.516Z,19.35
2022-09-02T00:48:44.477Z,19.43
2022-09-02T00:49:44.449Z,19.46
2022-09-02T00:50:44.405Z,19.43
2022-09-02T00:51:44.365Z,19.42
2022-09-02T00:52:44.329Z,19.52
2022-09-02T00:53:44.291Z,19.47
2022-09-02T00:54:44.279Z,19.53
2022-09-02T00:55:44.216Z,19.53
2022-09-02T00:56:44.181Z,19.43
2022-09-02T00:57:44.144Z,19.49
2022-09-02T00:58:44.109Z,19.46
2022-09-02T00:59:44.067Z,19.45
2022-09-02T01:00:44.135Z,19.43
2022-09-02T01:01:44.122Z,19.38
2022-09-02T01:02:43.961Z,19.38
2022-09-02T01:03:43.928Z,19.39
2022-09-02T01:04:43.886Z,19.42
2022-09-02T01:05:43.992Z,19.50
2022-09-02T01:06:43.823Z,19.45
2022-09-02T01:07:43.770Z,19.46
2022-09-02T01:08:43.734Z,19.58
2022-09-02T01:09:43.699Z,19.30
2022-09-02T01:10:43.661Z,19.39
2022-09-02T01:11:43.619Z,19.40
2022-09-02T01:12:43.596Z,19.38
2022-09-02T01:13:43.557Z,19.34
2022-09-02T01:14:43.525Z,19.27
2022-09-02T01:15:43.472Z,19.25
2022-09-02T01:16:43.547Z,19.32
2022-09-02T01:17:43.410Z,19.30
2022-09-02T01:18:43.362Z,19.31
2022-09-02T01:19:43.324Z,19.24
2022-09-02T01:20:43.291Z,19.20
2022-09-02T01:21:43.285Z,19.21
2022-09-02T01:22:43.213Z,19.13
2022-09-02T01:23:43.176Z,19.09
2022-09-02T01:24:43.140Z,19.10
2022-09-02T01:25:43.101Z,19.06
2022-09-02T01:26:43.065Z,18.94
2022-09-02T01:27:43.035Z,19.05
2022-09-02T01:28:42.990Z,19.05
2022-09-02T01:29:42.952Z,19.02
2022-09-02T01:30:42.918Z,19.02
2022-09-02T01:31:42.970Z,19.01
2022-09-02T01:32:42.841Z,19.05
2022-09-02T01:33:42.815Z,19.12
2022-09-02T01:34:42.778Z,19.10
2022-09-02T01:35:42.729Z,19.21
2022-09-02T01:36:42.698Z,19.23
2022-09-02T01:37:42.655Z,19.30
2022-09-02T01:38:42.621Z,19.27
2022-09-02T01:39:42.590Z,19.27
2022-09-02T01:40:42.681Z,19.24
2022-09-02T01:41:42.505Z,19.30
2022-09-02T01:42:42.474Z,19.31
2022-09-02T01:43:42.430Z,19.23
2022-09-02T01:44:42.395Z,19.32
2022-09-02T01:45:42.373Z,19.25
2022-09-02T01:46:42.379Z,19.42
2022-09-02T01:47:42.283Z,19.42
2022-09-02T01:48:42.245Z,19.27
2022-09-02T01:49:42.207Z,19.27
2022-09-02T01:50:46.844Z,19.27
2022-09-02T01:51:42.147Z,19.28
2022-09-02T01:52:42.096Z,19.35
2022-09-02T01:53:42.069Z,19.45
2022-09-02T01:54:42.023Z,19.45
2022-09-02T01:55:41.983Z,19.40
2022-09-02T01:56:41.949Z,19.43
2022-09-02T01:57:41.910Z,19.43
2022-09-02T01:58:41.875Z,19.32
2022-09-02T01:59:41.849Z,19.38
2022-09-02T02:00:41.854Z,19.28
2022-09-02T02:01:41.818Z,19.24
2022-09-02T02:02:43.347Z,19.25
2022-09-02T02:03:41.688Z,19.28
2022-09-02T02:04:41.651Z,19.28
2022-09-02T02:05:41.619Z,19.25
2022-09-02T02:06:41.589Z,19.16
2022-09-02T02:07:41.537Z,19.17
2022-09-02T02:08:41.502Z,19.17
2022-09-02T02:09:41.464Z,19.21
2022-09-02T02:10:41.429Z,19.13
2022-09-02T02:11:41.389Z,19.12
2022-09-02T02:12:41.366Z,19.24
2022-09-02T02:13:41.318Z,19.16
2022-09-02T02:14:41.280Z,19.17
2022-09-02T02:15:41.252Z,19.10
2022-09-02T02:16:41.315Z,19.09
2022-09-02T02:17:41.171Z,19.10
2022-09-02T02:18:41.143Z,19.06
2022-09-02T02:19:41.089Z,19.09
2022-09-02T02:20:44.740Z,19.13
2022-09-02T02:21:41.024Z,19.24
2022-09-02T02:22:40.983Z,19.24
2022-09-02T02:23:40.940Z,19.17
2022-09-02T02:24:40.927Z,19.13
2022-09-02T02:25:40.868Z,19.17
2022-09-02T02:26:40.831Z,19.13
2022-09-02T02:27:40.790Z,19.13
2022-09-02T02:28:40.753Z,19.01
2022-09-02T02:29:40.717Z,19.07
2022-09-02T02:30:40.698Z,19.02
2022-09-02T02:31:40.666Z,19.05
2022-09-02T02:32:40.608Z,18.96
2022-09-02T02:33:40.569Z,18.94
2022-09-02T02:34:40.532Z,18.93
2022-09-02T02:35:40.516Z,18.89
2022-09-02T02:36:40.457Z,18.99
2022-09-02T02:37:40.419Z,18.93
2022-09-02T02:38:40.382Z,18.91
2022-09-02T02:39:40.343Z,18.84
2022-09-02T02:40:40.354Z,18.90
2022-09-02T02:41:40.282Z,18.91
2022-09-02T02:42:40.232Z,18.82
2022-09-02T02:43:40.194Z,18.86
2022-09-02T02:44:40.157Z,18.74
2022-09-02T02:45:40.119Z,18.79
2022-09-02T02:46:40.135Z,18.69
2022-09-02T02:47:40.056Z,18.69
2022-09-02T02:48:40.011Z,18.62
2022-09-02T02:49:39.970Z,18.53
2022-09-02T02:50:39.934Z,18.50
2022-09-02T02:51:39.897Z,18.66
2022-09-02T02:52:39.861Z,18.68
2022-09-02T02:53:39.837Z,18.62
2022-09-02T02:54:39.785Z,18.65
2022-09-02T02:55:39.746Z,18.59
2022-09-02T02:56:39.733Z,18.53
2022-09-02T02:57:39.675Z,18.49
2022-09-02T02:58:39.636Z,18.46
2022-09-02T02:59:39.607Z,18.42
2022-09-02T03:00:39.562Z,18.35
2022-09-02T03:01:39.614Z,18.39
2022-09-02T03:02:39.630Z,18.34
2022-09-02T03:03:39.445Z,18.50
2022-09-02T03:04:39.429Z,18.49
2022-09-02T03:05:39.386Z,18.51
2022-09-02T03:06:39.337Z,18.42
2022-09-02T03:07:39.296Z,18.32
2022-09-02T03:08:39.271Z,18.38
2022-09-02T03:09:39.226Z,18.38
2022-09-02T03:10:39.183Z,18.26
2022-09-02T03:11:39.146Z,18.20
2022-09-02T03:12:39.109Z,18.19
2022-09-02T03:13:39.072Z,18.11
2022-09-02T03:14:39.046Z,18.05
2022-09-02T03:15:39.073Z,17.86
2022-09-02T03:16:38.958Z,17.94
2022-09-02T03:17:38.924Z,17.84
2022-09-02T03:18:38.884Z,17.80
2022-09-02T03:19:38.848Z,17.71
2022-09-02T03:20:38.823Z,17.68
2022-09-02T03:21:39.444Z,17.65
2022-09-02T03:22:38.733Z,17.62
2022-09-02T03:23:38.698Z,17.66
2022-09-02T03:24:38.661Z,17.62
2022-09-02T03:25:38.635Z,17.55
2022-09-02T03:26:38.583Z,17.63
2022-09-02T03:27:38.547Z,17.57
2022-09-02T03:28:38.509Z,17.57
2022-09-02T03:29:38.471Z,17.51
2022-09-02T03:30:38.451Z,17.42
2022-09-02T03:31:38.456Z,17.45
2022-09-02T03:32:38.358Z,17.35
2022-09-02T03:33:38.322Z,17.39
2022-09-02T03:34:38.282Z,17.32
2022-09-02T03:35:38.245Z,17.38
2022-09-02T03:36:38.223Z,17.33
2022-09-02T03:37:38.172Z,17.42
2022-09-02T03:38:38.131Z,17.38
2022-09-02T03:39:38.099Z,17.38
2022-09-02T03:40:38.110Z,17.30
2022-09-02T03:41:38.021Z,17.32
2022-09-02T03:42:38.008Z,17.18
2022-09-02T03:43:37.947Z,17.24
2022-09-02T03:44:37.905Z,17.35
2022-09-02T03:45:37.901Z,17.36
2022-09-02T03:46:37.830Z,17.36
2022-09-02T03:47:37.791Z,17.40
2022-09-02T03:48:37.787Z,17.39
2022-09-02T03:49:37.718Z,17.35
2022-09-02T03:50:37.680Z,17.24
2022-09-02T03:51:37.643Z,17.28
2022-09-02T03:52:37.604Z,17.05
2022-09-02T03:53:37.571Z,17.07
2022-09-02T03:54:37.539Z,17.10
2022-09-02T03:55:37.493Z,17.02
2022-09-02T03:56:37.452Z,17.07
2022-09-02T03:57:37.420Z,17.02
2022-09-02T03:58:37.390Z,16.98
2022-09-02T03:59:37.353Z,16.85
2022-09-02T04:00:37.301Z,16.91
2022-09-02T04:01:37.291Z,16.82
2022-09-02T04:02:37.378Z,16.77
2022-09-02T04:03:37.189Z,16.73
2022-09-02T04:04:37.150Z,16.80
2022-09-02T04:05:37.127Z,16.65
2022-09-02T04:06:37.084Z,16.70
2022-09-02T04:07:37.041Z,16.65
2022-09-02T04:08:37.001Z,16.66
2022-09-02T04:09:36.963Z,16.67
2022-09-02T04:10:36.925Z,16.70
2022-09-02T04:11:36.898Z,16.57
2022-09-02T04:12:36.847Z,16.54
2022-09-02T04:13:36.830Z,16.54
2022-09-02T04:14:36.775Z,16.59
2022-09-02T04:15:36.802Z,16.48
2022-09-02T04:16:36.770Z,16.51
2022-09-02T04:17:36.669Z,16.54
2022-09-02T04:18:36.623Z,16.41
2022-09-02T04:19:36.583Z,16.41
2022-09-02T04:20:36.546Z,16.47
2022-09-02T04:21:36.507Z,16.45
2022-09-02T04:22:36.468Z,16.41
2022-09-02T04:23:36.442Z,16.44
2022-09-02T04:24:36.392Z,16.44
2022-09-02T04:25:36.355Z,16.30
2022-09-02T04:26:36.316Z,16.34
2022-09-02T04:27:36.279Z,16.30
2022-09-02T04:28:36.256Z,16.37
2022-09-02T04:29:36.204Z,16.41
2022-09-02T04:30:36.165Z,16.32
2022-09-02T04:31:36.162Z,16.34
2022-09-02T04:32:40.468Z,16.33
2022-09-02T04:33:36.051Z,16.48
2022-09-02T04:34:36.023Z,16.50
2022-09-02T04:35:35.975Z,16.57
2022-09-02T04:36:35.936Z,16.47
2022-09-02T04:37:35.899Z,16.45
2022-09-02T04:38:35.861Z,16.36
2022-09-02T04:39:35.822Z,16.42
2022-09-02T04:40:35.867Z,16.47
2022-09-02T04:41:35.753Z,16.44
2022-09-02T04:42:35.710Z,16.44
2022-09-02T04:43:35.672Z,16.44
2022-09-02T04:44:35.631Z,16.51
2022-09-02T04:45:35.598Z,16.40
2022-09-02T04:46:35.595Z,16.37
2022-09-02T04:47:35.518Z,16.44
2022-09-02T04:48:35.480Z,16.45
2022-09-02T04:49:35.441Z,16.50
2022-09-02T04:50:35.404Z,16.50
2022-09-02T04:51:35.364Z,16.54
2022-09-02T04:52:35.340Z,16.63
2022-09-02T04:53:35.732Z,16.60
2022-09-02T04:54:35.254Z,16.59
2022-09-02T04:55:35.211Z,16.65
2022-09-02T04:56:35.173Z,16.82
2022-09-02T04:57:35.136Z,16.70
2022-09-02T04:58:35.108Z,16.90
2022-09-02T04:59:35.065Z,16.87
2022-09-02T05:00:35.020Z,16.98
2022-09-02T05:01:35.028Z,16.99
2022-09-02T05:02:34.993Z,17.03
2022-09-02T05:03:34.909Z,17.12
2022-09-02T05:04:34.882Z,17.06
2022-09-02T05:05:34.837Z,17.18
2022-09-02T05:06:34.794Z,17.17
2022-09-02T05:07:44.009Z,17.18
2022-09-02T05:08:34.716Z,17.18
2022-09-02T05:09:34.678Z,17.27
2022-09-02T05:10:34.655Z,17.28
2022-09-02T05:11:34.604Z,17.42
2022-09-02T05:12:34.570Z,17.38
2022-09-02T05:13:34.528Z,17.43
2022-09-02T05:14:34.489Z,17.53
2022-09-02T05:15:34.527Z,17.53
2022-09-02T05:16:34.415Z,17.53
2022-09-02T05:17:34.379Z,17.54
2022-09-02T05:18:34.336Z,17.62
2022-09-02T05:19:34.368Z,17.60
2022-09-02T05:20:34.275Z,17.57
2022-09-02T05:21:34.244Z,17.49
2022-09-02T05:22:34.188Z,17.47
2022-09-02T05:23:34.148Z,17.53
2022-09-02T05:24:34.111Z,17.60
2022-09-02T05:25:34.073Z,17.62
2022-09-02T05:26:34.051Z,17.62
2022-09-02T05:27:34.019Z,17.79
2022-09-02T05:28:33.958Z,17.87
2022-09-02T05:29:33.923Z,17.83
2022-09-02T05:30:33.883Z,17.91
2022-09-02T05:31:33.894Z,18.04
2022-09-02T05:32:37.595Z,17.99
2022-09-02T05:33:33.785Z,18.10
2022-09-02T05:34:33.735Z,18.16
2022-09-02T05:35:33.696Z,18.21
2022-09-02T05:36:33.659Z,18.32
2022-09-02T05:37:33.632Z,18.34
2022-09-02T05:38:33.588Z,18.51
2022-09-02T05:39:33.542Z,18.42
2022-09-02T05:40:33.530Z,18.57
2022-09-02T05:41:33.481Z,18.60
2022-09-02T05:42:33.434Z,18.65
2022-09-02T05:43:33.407Z,18.68
2022-09-02T05:44:33.369Z,18.74
2022-09-02T05:45:33.320Z,18.93
2022-09-02T05:46:33.329Z,19.05
2022-09-02T05:47:33.248Z,19.55
2022-09-02T05:48:33.207Z,20.15
2022-09-02T05:49:33.184Z,20.57
2022-09-02T05:50:33.134Z,21.01
2022-09-02T05:51:33.098Z,21.90
2022-09-02T05:52:33.058Z,22.67
2022-09-02T05:53:33.037Z,23.47
2022-09-02T05:54:33.001Z,24.19
2022-09-02T05:55:32.949Z,24.77
2022-09-02T05:56:32.914Z,25.42
2022-09-02T05:57:32.876Z,25.81
2022-09-02T05:58:32.839Z,26.66
2022-09-02T05:59:32.804Z,27.15
2022-09-02T06:00:32.778Z,27.68
2022-09-02T06:01:32.792Z,28.03
2022-09-02T06:02:32.722Z,28.35
2022-09-02T06:03:32.663Z,28.73
2022-09-02T06:04:32.624Z,28.69
2022-09-02T06:05:32.601Z,28.62
2022-09-02T06:06:32.556Z,27.42
2022-09-02T06:07:32.524Z,26.35
2022-09-02T06:08:32.485Z,25.59
2022-09-02T06:09:32.452Z,25.08
2022-09-02T06:10:32.416Z,25.24
2022-09-02T06:11:32.396Z,25.61
2022-09-02T06:12:32.348Z,26.59
2022-09-02T06:13:32.317Z,27.18
2022-09-02T06:14:32.279Z,27.55
2022-09-02T06:15:32.322Z,27.74
2022-09-02T06:16:32.210Z,27.06
2022-09-02T06:17:32.206Z,26.76
2022-09-02T06:18:32.142Z,26.46
2022-09-02T06:19:32.110Z,26.31
2022-09-02T06:20:32.073Z,25.78
2022-09-02T06:21:32.039Z,25.76
2022-09-02T06:22:32.006Z,26.21
2022-09-02T06:23:31.986Z,25.85
2022-09-02T06:24:31.933Z,26.04
2022-09-02T06:25:31.906Z,26.21
2022-09-02T06:26:31.873Z,26.51
2022-09-02T06:27:31.837Z,26.94
2022-09-02T06:28:31.800Z,27.09
2022-09-02T06:29:31.783Z,27.77
2022-09-02T06:30:31.735Z,27.80
2022-09-02T06:31:34.423Z,28.61
2022-09-02T06:32:31.664Z,28.80
2022-09-02T06:33:31.632Z,28.21
2022-09-02T06:34:31.598Z,27.49
2022-09-02T06:35:31.578Z,26.31
2022-09-02T06:36:31.598Z,25.59
2022-09-02T06:37:31.498Z,25.27
2022-09-02T06:38:31.465Z,24.99
2022-09-02T06:39:31.434Z,24.42
2022-09-02T06:40:31.418Z,23.99
2022-09-02T06:41:31.365Z,23.31
2022-09-02T06:42:31.329Z,23.45
2022-09-02T06:43:41.334Z,23.16
2022-09-02T06:44:32.560Z,22.93
2022-09-02T06:45:31.230Z,22.84
2022-09-02T06:46:31.272Z,22.97
2022-09-02T06:47:31.160Z,22.96
2022-09-02T06:48:31.129Z,22.85
2022-09-02T06:49:31.100Z,22.88
2022-09-02T06:50:31.061Z,23.11
2022-09-02T06:51:31.027Z,23.21
2022-09-02T06:52:31.015Z,23.06
2022-09-02T06:53:30.957Z,23.47
2022-09-02T06:54:30.928Z,24.29
2022-09-02T06:55:30.891Z,24.86
2022-09-02T06:56:30.860Z,25.20
2022-09-02T06:57:33.858Z,25.09
2022-09-02T06:58:30.829Z,24.84
2022-09-02T06:59:30.757Z,25.02
2022-09-02T07:00:31.080Z,25.69
2022-09-02T07:01:30.746Z,25.38
2022-09-02T07:02:30.651Z,25.29
2022-09-02T07:03:30.616Z,24.44
2022-09-02T07:04:30.582Z,23.39
2022-09-02T07:05:30.560Z,22.91
2022-09-02T07:06:30.514Z,23.06
2022-09-02T07:07:30.479Z,23.25
2022-09-02T07:08:30.464Z,23.67
2022-09-02T07:09:30.413Z,23.97
2022-09-02T07:10:30.386Z,23.97
2022-09-02T07:11:30.343Z,23.84
2022-09-02T07:12:30.307Z,23.89
2022-09-02T07:13:30.276Z,23.79
2022-09-02T07:14:30.270Z,23.38
2022-09-02T07:15:30.204Z,23.29
2022-09-02T07:16:30.218Z,23.21
2022-09-02T07:17:30.137Z,22.88
2022-09-02T07:18:30.100Z,22.89
2022-09-02T07:19:30.067Z,23.71
2022-09-02T07:20:30.034Z,24.41
2022-09-02T07:21:29.998Z,25.09
2022-09-02T07:22:29.976Z,25.86
2022-09-02T07:23:29.930Z,26.13
2022-09-02T07:24:29.895Z,26.54
2022-09-02T07:25:29.893Z,26.50
2022-09-02T07:26:29.828Z,26.23
2022-09-02T07:27:29.796Z,26.12
2022-09-02T07:28:29.787Z,26.13
2022-09-02T07:29:29.727Z,25.91
2022-09-02T07:30:29.713Z,25.85
2022-09-02T07:31:29.659Z,25.78
2022-09-02T07:32:29.625Z,26.06
2022-09-02T07:33:29.596Z,26.04
2022-09-02T07:34:29.572Z,25.79
2022-09-02T07:35:29.557Z,25.57
2022-09-02T07:36:29.491Z,25.97
2022-09-02T07:37:29.454Z,26.29
2022-09-02T07:38:29.428Z,26.60
2022-09-02T07:39:29.389Z,26.41
2022-09-02T07:40:29.426Z,26.59
2022-09-02T07:41:29.321Z,27.24
2022-09-02T07:42:29.292Z,27.84
2022-09-02T07:43:29.258Z,27.33
2022-09-02T07:44:29.228Z,27.46
2022-09-02T07:45:29.213Z,28.01
2022-09-02T07:46:29.212Z,28.03
2022-09-02T07:47:29.122Z,26.86
2022-09-02T07:48:29.093Z,26.42
2022-09-02T07:49:29.075Z,26.16
2022-09-02T07:50:29.027Z,26.57
2022-09-02T07:51:30.824Z,26.00
2022-09-02T07:52:28.962Z,26.41
2022-09-02T07:53:28.930Z,26.39
2022-09-02T07:54:28.897Z,26.47
2022-09-02T07:55:28.861Z,26.72
2022-09-02T07:56:28.832Z,26.09
2022-09-02T07:57:28.816Z,25.39
2022-09-02T07:58:28.767Z,24.74
2022-09-02T07:59:28.738Z,24.44
2022-09-02T08:00:28.699Z,23.68
2022-09-02T08:01:28.765Z,23.23
2022-09-02T08:02:28.660Z,23.11
2022-09-02T08:03:28.611Z,22.91
2022-09-02T08:04:28.569Z,22.69
2022-09-02T08:05:28.537Z,22.57
2022-09-02T08:06:34.365Z,22.69
2022-09-02T08:07:28.472Z,22.70
2022-09-02T08:08:28.436Z,22.81
2022-09-02T08:09:28.424Z,22.94
2022-09-02T08:10:28.373Z,23.23
2022-09-02T08:11:28.336Z,23.90
2022-09-02T08:12:28.303Z,24.48
2022-09-02T08:13:28.392Z,25.02
2022-09-02T08:14:28.274Z,25.83
2022-09-02T08:15:28.216Z,26.56
2022-09-02T08:16:28.232Z,27.20
2022-09-02T08:17:28.135Z,27.55
2022-09-02T08:18:28.102Z,28.05
2022-09-02T08:19:28.068Z,28.28
2022-09-02T08:20:28.051Z,28.02
2022-09-02T08:21:28.006Z,27.45
2022-09-02T08:22:28.009Z,27.09
2022-09-02T08:23:37.202Z,27.12
2022-09-02T08:24:27.906Z,26.91
2022-09-02T08:25:27.870Z,27.27
2022-09-02T08:26:27.852Z,27.87
2022-09-02T08:27:27.809Z,27.58
2022-09-02T08:28:27.789Z,27.77
2022-09-02T08:29:27.742Z,27.31
2022-09-02T08:30:27.711Z,26.57
2022-09-02T08:31:27.731Z,25.86
2022-09-02T08:32:27.650Z,25.93
2022-09-02T08:33:27.613Z,26.29
2022-09-02T08:34:27.602Z,26.28
2022-09-02T08:35:27.549Z,26.27
2022-09-02T08:36:27.520Z,26.35
2022-09-02T08:37:27.495Z,26.87
2022-09-02T08:38:27.456Z,27.43
2022-09-02T08:39:27.428Z,27.87
2022-09-02T08:40:27.442Z,27.83
2022-09-02T08:41:27.359Z,27.69
2022-09-02T08:42:27.333Z,27.53
2022-09-02T08:43:27.298Z,28.06
2022-09-02T08:44:27.266Z,28.65
2022-09-02T08:45:27.286Z,28.87
2022-09-02T08:46:27.237Z,27.99
2022-09-02T08:47:27.169Z,27.28
2022-09-02T08:48:27.179Z,27.28
2022-09-02T08:49:27.106Z,27.52
2022-09-02T08:50:27.084Z,27.45
2022-09-02T08:51:27.051Z,26.96
2022-09-02T08:52:27.010Z,26.84
2022-09-02T08:53:26.986Z,27.03
2022-09-02T08:54:26.962Z,27.06
2022-09-02T08:55:26.915Z,26.83
2022-09-02T08:56:26.886Z,26.51
2022-09-02T08:57:26.854Z,26.81
2022-09-02T08:58:26.823Z,26.47
2022-09-02T08:59:26.873Z,26.57
2022-09-02T09:00:26.776Z,25.90
2022-09-02T09:01:26.759Z,25.72
2022-09-02T09:02:26.737Z,25.97
2022-09-02T09:03:26.663Z,26.34
2022-09-02T09:04:26.637Z,26.65
2022-09-02T09:05:26.601Z,27.05
2022-09-02T09:06:26.594Z,27.09
2022-09-02T09:07:26.568Z,27.24
2022-09-02T09:08:26.590Z,27.76
2022-09-02T09:09:26.473Z,28.20
2022-09-02T09:10:26.446Z,28.32
2022-09-02T09:11:26.410Z,28.27
2022-09-02T09:12:26.392Z,28.80
2022-09-02T09:13:26.356Z,29.55
2022-09-02T09:14:26.321Z,29.25
2022-09-02T09:15:26.285Z,28.52
2022-09-02T09:16:26.293Z,28.08
2022-09-02T09:17:28.033Z,28.05
2022-09-02T09:18:26.196Z,27.52
2022-09-02T09:19:26.162Z,27.62
2022-09-02T09:20:26.157Z,27.72
2022-09-02T09:22:26.084Z,28.28
2022-09-02T09:23:26.355Z,27.76
2022-09-02T09:24:26.009Z,27.74
2022-09-02T09:25:25.978Z,28.33
2022-09-02T09:26:25.947Z,28.25
2022-09-02T09:27:25.933Z,28.09
2022-09-02T09:28:25.886Z,28.38
2022-09-02T09:29:25.857Z,28.35
2022-09-02T09:30:25.860Z,28.25
2022-09-02T09:31:25.819Z,28.73
2022-09-02T09:32:25.764Z,28.89
2022-09-02T09:33:25.747Z,29.23
2022-09-02T09:34:25.705Z,29.66
2022-09-02T09:35:25.670Z,29.55
2022-09-02T09:36:25.643Z,29.41
2022-09-02T09:37:25.613Z,29.17
2022-09-02T09:38:25.586Z,29.05
2022-09-02T09:39:25.597Z,29.20
2022-09-02T09:40:25.558Z,28.95
2022-09-02T09:41:25.492Z,27.53
2022-09-02T09:42:25.462Z,27.43
2022-09-02T09:43:25.545Z,28.05
2022-09-02T09:44:25.402Z,28.40
2022-09-02T09:45:25.421Z,28.39
2022-09-02T09:46:25.344Z,28.46
2022-09-02T09:47:25.311Z,28.54
2022-09-02T09:48:25.283Z,28.57
2022-09-02T09:49:25.253Z,28.48
2022-09-02T09:50:25.231Z,28.52
2022-09-02T09:51:25.189Z,28.51
2022-09-02T09:52:25.163Z,28.89
2022-09-02T09:53:25.128Z,29.08
2022-09-02T09:54:25.105Z,28.87
2022-09-02T09:55:25.583Z,28.69
2022-09-02T09:56:25.056Z,28.82
2022-09-02T09:57:25.021Z,28.21
2022-09-02T09:58:24.986Z,28.39
2022-09-02T09:59:24.950Z,28.94
2022-09-02T10:00:24.925Z,28.65
2022-09-02T10:01:25.014Z,28.40
2022-09-02T10:02:24.988Z,28.13
2022-09-02T10:03:24.913Z,27.84
2022-09-02T10:04:41.690Z,28.14
2022-09-02T10:05:24.766Z,27.78
2022-09-02T10:06:24.753Z,27.53
2022-09-02T10:07:24.708Z,27.78
2022-09-02T10:08:24.691Z,28.02
2022-09-02T10:09:24.651Z,28.14
2022-09-02T10:10:24.618Z,28.17
2022-09-02T10:11:24.583Z,28.45
2022-09-02T10:12:24.556Z,28.60
2022-09-02T10:13:24.523Z,28.85
2022-09-02T10:14:26.537Z,29.05
2022-09-02T10:15:24.460Z,29.26
2022-09-02T10:16:24.941Z,29.35
2022-09-02T10:17:24.400Z,29.48
2022-09-02T10:18:24.438Z,29.62
2022-09-02T10:19:24.351Z,29.73
2022-09-02T10:20:24.311Z,29.73
2022-09-02T10:21:24.333Z,29.71
2022-09-02T10:22:24.251Z,29.67
2022-09-02T10:23:24.216Z,29.12
2022-09-02T10:24:24.190Z,28.98
2022-09-02T10:25:25.126Z,29.00
2022-09-02T10:27:24.092Z,29.67
2022-09-02T10:28:24.242Z,29.71
2022-09-02T10:29:24.033Z,29.25
2022-09-02T10:30:24.000Z,28.62
2022-09-02T10:31:24.012Z,28.55
2022-09-02T10:32:24.683Z,28.14
2022-09-02T10:33:24.295Z,27.77
2022-09-02T10:34:23.877Z,27.18
2022-09-02T10:35:23.845Z,26.47
2022-09-02T10:36:25.494Z,26.19
2022-09-02T10:37:24.760Z,25.90
2022-09-02T10:38:23.868Z,25.76
2022-09-02T10:39:24.015Z,26.00
2022-09-02T10:40:25.355Z,26.03
2022-09-02T10:41:23.848Z,25.79
2022-09-02T10:42:23.884Z,26.17
2022-09-02T10:43:23.769Z,26.94
2022-09-02T10:44:23.690Z,27.65
2022-09-02T10:45:26.100Z,27.96
2022-09-02T10:46:24.205Z,28.23
2022-09-02T10:47:30.057Z,28.30
2022-09-02T10:48:24.623Z,28.64
2022-09-02T10:49:23.530Z,28.82
2022-09-02T10:50:23.396Z,29.07
2022-09-02T10:51:23.567Z,29.27
2022-09-02T10:52:23.311Z,29.02
2022-09-02T10:53:23.649Z,29.32
2022-09-02T10:54:23.671Z,28.98
2022-09-02T10:55:23.232Z,28.92
2022-09-02T10:56:23.206Z,28.77
2022-09-02T10:57:23.189Z,29.03
2022-09-02T10:58:23.580Z,29.20
2022-09-02T10:59:23.083Z,29.23
2022-09-02T11:00:24.239Z,29.08
2022-09-02T11:01:23.257Z,28.51
2022-09-02T11:02:23.181Z,28.43
2022-09-02T11:03:23.540Z,28.23
2022-09-02T11:04:25.382Z,27.65
2022-09-02T11:05:22.920Z,27.31
2022-09-02T11:06:23.068Z,26.75
2022-09-02T11:07:22.839Z,26.28
2022-09-02T11:08:22.990Z,26.28
2022-09-02T11:09:23.004Z,26.35
2022-09-02T11:10:22.755Z,26.29
2022-09-02T11:11:22.867Z,26.12
2022-09-02T11:12:22.680Z,26.08
2022-09-02T11:13:23.740Z,26.60
2022-09-02T11:14:22.658Z,26.91
2022-09-02T11:15:22.597Z,27.02
2022-09-02T11:16:22.979Z,26.84
2022-09-02T11:17:22.552Z,26.90
2022-09-02T11:18:22.491Z,26.81
2022-09-02T11:19:22.525Z,26.51
2022-09-02T11:20:22.443Z,26.42
2022-09-02T11:21:22.492Z,26.41
2022-09-02T11:22:25.523Z,26.41
2022-09-02T11:23:22.534Z,26.29
2022-09-02T11:24:22.299Z,25.90
2022-09-02T11:25:22.478Z,25.91
2022-09-02T11:26:22.339Z,25.94
2022-09-02T11:27:32.435Z,25.91
2022-09-02T11:28:22.876Z,25.94
2022-09-02T11:29:22.586Z,25.93
2022-09-02T11:30:22.410Z,25.79
2022-09-02T11:31:22.539Z,25.71
2022-09-02T11:32:22.776Z,25.85
2022-09-02T11:33:22.105Z,25.85
2022-09-02T11:34:22.109Z,25.78
2022-09-02T11:35:22.082Z,25.94
2022-09-02T11:36:21.984Z,25.85
2022-09-02T11:37:21.891Z,25.93
2022-09-02T11:38:22.503Z,26.03
2022-09-02T11:39:35.977Z,26.16
2022-09-02T11:40:34.226Z,26.12
2022-09-02T11:41:37.914Z,26.19
2022-09-02T11:42:21.986Z,26.11
2022-09-02T11:43:22.246Z,26.31
2022-09-02T11:44:21.715Z,26.34
2022-09-02T11:45:22.662Z,26.38
2022-09-02T11:46:22.225Z,26.46
2022-09-02T11:47:21.776Z,26.29
2022-09-02T11:48:21.662Z,25.97
2022-09-02T11:49:27.836Z,26.11
2022-09-02T11:50:22.398Z,26.31
2022-09-02T11:51:23.069Z,26.32
2022-09-02T11:53:21.628Z,25.91
2022-09-02T11:54:21.809Z,25.94
2022-09-02T11:55:21.544Z,26.01
2022-09-02T11:56:21.411Z,26.06
2022-09-02T11:57:21.316Z,25.89
2022-09-02T11:58:21.271Z,25.74
2022-09-02T11:59:21.262Z,25.76
2022-09-02T12:00:22.166Z,25.72
2022-09-02T12:01:25.775Z,25.79
2022-09-02T12:02:21.219Z,25.75
2022-09-02T12:03:40.323Z,25.74
2022-09-02T12:05:21.308Z,25.66
2022-09-02T12:06:22.897Z,25.74
2022-09-02T12:07:26.407Z,25.64
2022-09-02T12:08:22.928Z,25.61
2022-09-02T12:09:22.522Z,25.79
2022-09-02T12:10:21.646Z,26.03
2022-09-02T12:11:20.990Z,26.41
2022-09-02T12:12:21.507Z,26.59
2022-09-02T12:13:20.881Z,26.86
2022-09-02T12:14:21.845Z,27.20
2022-09-02T12:15:21.184Z,27.45
2022-09-02T12:16:21.002Z,27.66
2022-09-02T12:17:20.785Z,27.66
2022-09-02T12:18:23.376Z,27.59
2022-09-02T12:19:20.823Z,27.38
2022-09-02T12:20:20.485Z,26.94
2022-09-02T12:21:23.195Z,26.57
2022-09-02T12:22:20.757Z,26.36
2022-09-02T12:23:20.579Z,26.27
2022-09-02T12:24:20.537Z,26.03
2022-09-02T12:25:21.374Z,25.85
2022-09-02T12:26:20.484Z,25.66
2022-09-02T12:27:21.298Z,25.56
2022-09-02T12:28:21.790Z,25.59
2022-09-02T12:29:21.656Z,25.49
2022-09-02T12:30:20.555Z,25.60
2022-09-02T12:31:22.688Z,25.59
2022-09-02T12:32:20.280Z,25.51
2022-09-02T12:33:22.744Z,25.56
2022-09-02T12:34:20.579Z,25.39
2022-09-02T12:35:20.144Z,25.24
2022-09-02T12:36:20.159Z,25.22
2022-09-02T12:37:20.099Z,25.20
2022-09-02T12:38:20.169Z,25.22
2022-09-02T12:39:19.897Z,25.30
2022-09-02T12:40:20.823Z,25.31
2022-09-02T12:41:20.384Z,25.31
2022-09-02T12:42:20.048Z,25.31
2022-09-02T12:43:19.803Z,25.27
2022-09-02T12:44:21.667Z,25.38
2022-09-02T12:45:19.984Z,25.54
2022-09-02T12:46:20.061Z,25.81
2022-09-02T12:47:20.071Z,25.83
2022-09-02T12:48:36.483Z,25.71
2022-09-02T12:49:20.058Z,25.57
2022-09-02T12:50:19.811Z,25.56
2022-09-02T12:51:19.801Z,25.48
2022-09-02T12:52:20.455Z,25.49
2022-09-02T12:53:21.062Z,25.36
2022-09-02T12:54:19.531Z,25.35
2022-09-02T12:55:19.592Z,25.48
2022-09-02T12:56:20.435Z,25.53